Time;durP1;ratioP1;P1;durP2;ratioP2;P2;SDS_P1;SDS_P2;PMS_P1;PMS_P2;Temp;Humidity;BMP_temperature;BMP_pressure;BME280_temperature;BME280_humidity;BME280_pressure;Samples;Min_cycle;Max_cycle;Signal;HPM_P1;HPM_P2
2023/01/08 00:01:19;;;;;;;;;76.33;57.00;;;;;6.29;100.00;99883.72;6313237;20;3633740;-55
2023/01/08 00:03:49;;;;;;;;;73.00;58.00;;;;;6.31;100.00;99882.72;6308773;20;3605619;-54
2023/01/08 00:06:20;;;;;;;;;80.00;57.00;;;;;6.25;100.00;99882.97;6302351;20;3657567;-51
2023/01/08 00:08:50;;;;;;;;;76.67;59.00;;;;;6.43;100.00;99888.50;6279047;20;3624245;-52
2023/01/08 00:11:20;;;;;;;;;75.67;56.00;;;;;6.37;100.00;99882.50;6310342;20;3635664;-56
2023/01/08 00:13:49;;;;;;;;;67.67;51.00;;;;;6.29;100.00;99881.94;6311131;20;3644042;-53
2023/01/08 00:16:19;;;;;;;;;79.67;57.00;;;;;6.06;100.00;99877.53;6311522;20;3655505;-56
2023/01/08 00:18:49;;;;;;;;;72.00;55.00;;;;;6.26;100.00;99871.38;6282252;20;2879575;-57
2023/01/08 00:21:19;;;;;;;;;68.33;52.67;;;;;6.31;100.00;99864.06;6312291;20;3638820;-56
2023/01/08 00:23:48;;;;;;;;;75.50;57.50;;;;;6.17;100.00;99863.78;6312760;20;2859694;-55
2023/01/08 00:26:18;;;;;;;;;76.00;57.33;;;;;6.24;100.00;99873.25;6278918;20;3640939;-54
2023/01/08 00:28:47;;;;;;;;;76.00;58.00;;;;;6.14;100.00;99871.91;6314666;20;2881173;-57
2023/01/08 00:31:17;;;;;;;;;77.67;57.67;;;;;6.42;100.00;99870.75;6311068;20;3634695;-55
2023/01/08 00:33:46;;;;;;;;;73.00;49.67;;;;;6.37;100.00;99870.94;6312936;20;3649235;-56
2023/01/08 00:36:18;;;;;;;;;71.33;55.00;;;;;6.16;100.00;99870.00;6308755;20;3630593;-59
2023/01/08 00:38:47;;;;;;;;;75.33;55.33;;;;;6.31;100.00;99869.38;6311936;20;3629560;-57
2023/01/08 00:41:18;;;;;;;;;71.33;53.00;;;;;6.38;100.00;99865.53;6314854;20;3651430;-54
2023/01/08 00:43:47;;;;;;;;;76.67;57.67;;;;;6.36;100.00;99862.06;6313374;20;3630505;-54
2023/01/08 00:46:17;;;;;;;;;79.00;54.67;;;;;6.43;100.00;99873.38;6274649;20;3646158;-54
2023/01/08 00:48:46;;;;;;;;;75.00;55.67;;;;;6.29;100.00;99871.28;6309429;20;3644196;-56
2023/01/08 00:51:16;;;;;;;;;75.33;57.67;;;;;6.32;100.00;99871.16;6310319;20;2872234;-55
2023/01/08 00:53:45;;;;;;;;;72.00;53.00;;;;;6.42;100.00;99879.59;6309297;20;3649383;-55
2023/01/08 00:56:15;;;;;;;;;74.33;54.33;;;;;6.41;100.00;99879.69;6274365;20;3648222;-51
2023/01/08 00:58:44;;;;;;;;;75.33;52.33;;;;;6.30;100.00;99881.00;6309192;20;3644003;-54
2023/01/08 01:01:15;;;;;;;;;66.00;53.00;;;;;6.39;100.00;99882.41;6315284;20;3623207;-57
2023/01/08 01:03:44;;;;;;;;;75.67;56.33;;;;;6.37;100.00;99886.94;6317064;20;3648266;-56
2023/01/08 01:06:14;;;;;;;;;76.00;54.67;;;;;6.47;100.00;99888.28;6282218;20;3646076;-55
2023/01/08 01:08:44;;;;;;;;;65.33;51.33;;;;;6.47;100.00;99887.44;6284518;20;3639930;-56
2023/01/08 01:11:22;;;;;;;;;75.00;56.67;;;;;6.53;100.00;99880.06;6316450;20;3629424;-57
2023/01/08 01:13:54;;;;;;;;;66.67;49.33;;;;;6.49;100.00;99880.25;6314785;20;3642333;-54
2023/01/08 01:16:25;;;;;;;;;69.00;52.67;;;;;6.51;100.00;99887.25;6314367;20;3627436;-55
2023/01/08 01:18:56;;;;;;;;;73.00;52.33;;;;;6.33;100.00;99894.19;6317119;20;3641947;-55
2023/01/08 01:21:30;;;;;;;;;60.00;43.67;;;;;6.43;100.00;99885.84;6312879;20;3611758;-54
2023/01/08 01:24:04;;;;;;;;;73.33;51.67;;;;;6.46;100.00;99883.03;6312773;20;3653390;-57
2023/01/08 01:26:34;;;;;;;;;72.00;54.00;;;;;6.35;100.00;99892.34;6315889;20;3640961;-56
2023/01/08 01:29:04;;;;;;;;;73.00;53.00;;;;;6.48;100.00;99892.72;6314966;20;3638155;-57
2023/01/08 01:31:34;;;;;;;;;70.33;49.33;;;;;6.37;100.00;99887.81;6316366;20;3646093;-53
2023/01/08 01:34:03;;;;;;;;;70.67;52.67;;;;;6.40;100.00;99885.94;6314147;20;3638812;-55
2023/01/08 01:36:33;;;;;;;;;64.33;51.00;;;;;6.22;100.00;99880.44;6310924;20;3639839;-55
2023/01/08 01:39:03;;;;;;;;;73.67;53.67;;;;;6.31;100.00;99874.72;6311447;20;3641916;-56
2023/01/08 01:41:39;;;;;;;;;68.33;52.67;;;;;6.21;100.00;99872.50;6311902;20;3626313;-54
2023/01/08 01:44:44;;;;;;;;;68.00;53.00;;;;;6.36;100.00;99867.41;6313561;20;3629489;-55
2023/01/08 01:47:35;;;;;;;;;55.33;36.67;;;;;6.31;100.00;99880.06;6312381;20;3587829;-55
2023/01/08 01:50:14;;;;;;;;;76.33;55.67;;;;;6.30;100.00;99870.34;6282264;20;2878553;-58
2023/01/08 01:53:01;;;;;;;;;75.67;56.33;;;;;6.38;100.00;99868.22;6313217;20;3643066;-55
2023/01/08 01:55:32;;;;;;;;;73.00;53.33;;;;;6.34;100.00;99869.25;6280289;20;2881799;-57
2023/01/08 01:58:12;;;;;;;;;74.33;57.00;;;;;6.43;100.00;99864.50;6311289;20;3633635;-53
2023/01/08 02:00:43;;;;;;;;;72.00;53.67;;;;;6.20;100.00;99850.31;6314244;20;3633571;-56
2023/01/08 02:03:14;;;;;;;;;71.00;48.67;;;;;6.22;100.00;99843.13;6310016;20;3649430;-53
2023/01/08 02:06:22;;;;;;;;;72.00;54.67;;;;;6.09;100.00;99836.56;6280260;20;3632633;-56
2023/01/08 02:09:58;;;;;;;;;77.75;55.75;;;;;5.88;100.00;99832.94;6312078;20;3653463;-57
2023/01/08 02:13:03;;;;;;;;;75.00;57.00;;;;;6.05;100.00;99826.94;6311027;20;3637912;-55
2023/01/08 02:15:41;;;;;;;;;54.67;43.33;;;;;6.00;100.00;99821.78;6312472;20;3598308;-54
2023/01/08 02:18:49;;;;;;;;;72.33;55.00;;;;;5.88;100.00;99822.28;6281364;20;3630500;-56
2023/01/08 02:21:28;;;;;;;;;76.00;57.67;;;;;5.94;100.00;99817.56;6313505;20;3630621;-56
2023/01/08 02:24:18;;;;;;;;;79.00;56.33;;;;;5.93;100.00;99818.53;6313482;20;3635817;-55
2023/01/08 02:26:48;;;;;;;;;76.00;58.33;;;;;5.90;100.00;99821.28;6276887;20;3615945;-55
2023/01/08 02:29:23;;;;;;;;;65.67;49.67;;;;;6.04;100.00;99818.06;6309878;20;3650334;-57
2023/01/08 02:31:53;;;;;;;;;68.00;52.00;;;;;6.00;100.00;99815.59;6309511;20;3646586;-55
2023/01/08 02:34:23;;;;;;;;;72.67;53.33;;;;;6.06;100.00;99815.38;6275141;20;3639938;-54
2023/01/08 02:36:56;;;;;;;;;221.00;185.25;;;;;6.04;100.00;99822.56;6310854;20;4483582;-55
2023/01/08 02:40:01;;;;;;;;;65.67;47.33;;;;;6.07;100.00;99817.09;6275891;20;3659681;-57
2023/01/08 02:43:11;;;;;;;;;87.67;61.67;;;;;5.88;100.00;99824.94;6312874;20;3661756;-56
2023/01/08 02:45:53;;;;;;;;;212.25;170.75;;;;;6.09;100.00;99820.56;6315528;20;4470061;-58
2023/01/08 02:48:51;;;;;;;;;184.00;133.00;;;;;6.00;100.00;99820.94;6275424;20;4475294;-56
2023/01/08 02:51:34;;;;;;;;;108.67;88.67;;;;;6.15;100.00;99814.97;6280410;20;3684743;-55
2023/01/08 02:54:15;;;;;;;;;82.33;60.00;;;;;5.87;100.00;99799.19;6276120;20;3636778;-55
2023/01/08 02:56:57;;;;;;;;;86.00;65.00;;;;;5.87;100.00;99793.88;6277688;20;3643027;-54
2023/01/08 02:59:29;;;;;;;;;72.00;55.67;;;;;5.88;100.00;99776.97;6308632;20;3621659;-54
2023/01/08 03:02:01;;;;;;;;;86.00;62.67;;;;;5.72;100.00;99784.72;6309381;20;3654483;-54
2023/01/08 03:04:45;;;;;;;;;77.67;55.00;;;;;5.70;100.00;99782.09;6278100;20;3646550;-56
2023/01/08 03:07:15;;;;;;;;;76.00;58.67;;;;;6.00;100.00;99784.47;6311844;20;2863913;-53
2023/01/08 03:09:45;;;;;;;;;78.00;59.33;;;;;5.83;100.00;99777.16;6312206;20;3624209;-55
2023/01/08 03:12:35;;;;;;;;;66.67;53.67;;;;;5.85;100.00;99785.97;6310046;20;2870256;-56
2023/01/08 03:15:15;;;;;;;;;79.67;59.00;;;;;5.62;100.00;99776.22;6313152;20;3647231;-51
2023/01/08 03:17:51;;;;;;;;;58.33;43.00;;;;;5.72;100.00;99780.25;6278047;20;2873184;-54
2023/01/08 03:20:24;;;;;;;;;101.75;87.75;;;;;5.64;100.00;99776.16;6309584;20;3684728;-55
2023/01/08 03:23:02;;;;;;;;;72.00;52.33;;;;;5.64;100.00;99774.38;6272938;20;3653453;-54
2023/01/08 03:25:31;;;;;;;;;54.50;38.00;;;;;5.77;100.00;99782.75;6312980;20;2871126;-55
2023/01/08 03:28:09;;;;;;;;;78.00;58.67;;;;;5.82;100.00;99782.53;6279558;20;3641036;-57
2023/01/08 03:30:40;;;;;;;;;74.33;57.33;;;;;5.89;100.00;99792.88;6308595;20;3622240;-56
2023/01/08 03:33:12;;;;;;;;;92.33;79.33;;;;;5.90;100.00;99781.31;6310244;20;3655556;-54
2023/01/08 03:35:47;;;;;;;;;61.50;53.00;;;;;5.66;100.00;99783.19;6282791;20;2875260;-56
2023/01/08 03:38:34;;;;;;;;;90.00;65.67;;;;;5.79;100.00;99783.53;6277585;20;3673734;-55
2023/01/08 03:41:12;;;;;;;;;73.67;52.00;;;;;5.84;100.00;99781.53;6279900;20;3652347;-55
2023/01/08 03:43:42;;;;;;;;;79.33;60.00;;;;;5.88;100.00;99774.31;6277939;20;3634634;-55
2023/01/08 03:46:31;;;;;;;;;122.75;94.75;;;;;5.91;100.00;99769.72;6316607;20;3700396;-55
2023/01/08 03:49:06;;;;;;;;;165.75;133.00;;;;;5.63;100.00;99769.09;6274125;20;4496164;-55
2023/01/08 03:51:46;;;;;;;;;86.00;66.00;;;;;5.72;100.00;99774.06;6279292;20;1933655;-58
2023/01/08 03:54:23;;;;;;;;;197.00;158.50;;;;;5.72;100.00;99774.06;6271091;20;1942984;-56
2023/01/08 03:56:53;;;;;;;;;79.00;54.33;;;;;5.62;100.00;99767.38;6279155;20;3648185;-54
2023/01/08 03:59:23;;;;;;;;;144.25;110.50;;;;;5.66;100.00;99772.53;6278869;20;4466899;-57
2023/01/08 04:01:53;;;;;;;;;112.33;92.00;;;;;5.70;100.00;99771.44;6279510;20;3698279;-57
2023/01/08 04:04:23;;;;;;;;;151.00;121.00;;;;;5.70;100.00;99766.13;6278086;20;4482553;-56
2023/01/08 04:06:53;;;;;;;;;74.00;53.33;;;;;5.60;100.00;99774.53;6279460;20;2886793;-55
2023/01/08 04:09:22;;;;;;;;;64.67;51.67;;;;;5.79;100.00;99764.88;6308949;20;3632552;-54
2023/01/08 04:11:51;;;;;;;;;52.50;39.00;;;;;5.67;100.00;99771.56;6309660;20;2871201;-57
2023/01/08 04:14:21;;;;;;;;;72.00;53.33;;;;;5.86;100.00;99763.69;6276687;20;3638940;-58
2023/01/08 04:16:50;;;;;;;;;74.00;55.33;;;;;5.84;100.00;99760.22;6312476;20;3641936;-55
2023/01/08 04:19:20;;;;;;;;;86.33;63.33;;;;;5.84;100.00;99756.69;6274404;20;3669134;-55
2023/01/08 04:21:51;;;;;;;;;81.67;61.67;;;;;5.67;100.00;99754.72;6279604;20;3627378;-56
2023/01/08 04:24:21;;;;;;;;;79.00;61.33;;;;;5.61;100.00;99755.84;6310519;20;3635150;-57
2023/01/08 04:26:50;;;;;;;;;67.67;50.00;;;;;5.72;100.00;99750.94;6312945;20;3632662;-57
2023/01/08 04:29:20;;;;;;;;;72.33;54.67;;;;;5.66;100.00;99760.97;6311886;20;3648274;-57
2023/01/08 04:31:49;;;;;;;;;86.33;62.00;;;;;5.60;100.00;99764.75;6313091;20;3658626;-56
2023/01/08 04:34:19;;;;;;;;;90.67;70.33;;;;;5.45;100.00;99760.03;6281803;20;3657100;-55
2023/01/08 04:36:48;;;;;;;;;68.33;51.00;;;;;5.56;100.00;99763.16;6284806;20;3631561;-57
2023/01/08 04:39:18;;;;;;;;;79.00;59.00;;;;;5.32;100.00;99762.34;6316413;20;3639964;-56
2023/01/08 04:41:47;;;;;;;;;68.67;52.67;;;;;5.54;100.00;99764.16;6316339;20;3636815;-58
2023/01/08 04:44:17;;;;;;;;;60.33;46.33;;;;;5.58;100.00;99758.66;6318394;20;3629892;-57
2023/01/08 04:46:45;;;;;;;;;73.67;55.00;;;;;5.62;100.00;99762.91;6320168;20;3630480;-57
2023/01/08 04:49:15;;;;;;;;;77.00;57.00;;;;;5.57;100.00;99764.03;6282101;20;3634847;-57
2023/01/08 04:51:43;;;;;;;;;133.50;110.00;;;;;5.41;100.00;99759.28;6314077;20;1956628;-57
2023/01/08 04:54:13;;;;;;;;;85.33;68.00;;;;;5.49;100.00;99767.84;6282282;20;3658586;-55
2023/01/08 04:56:42;;;;;;;;;69.67;50.67;;;;;5.52;100.00;99761.53;6315601;20;3643010;-55
2023/01/08 04:59:12;;;;;;;;;71.67;52.00;;;;;5.45;100.00;99754.69;6313880;20;3641952;-57
2023/01/08 05:01:41;;;;;;;;;66.33;48.00;;;;;5.43;100.00;99756.59;6313332;20;3629548;-56
2023/01/08 05:04:11;;;;;;;;;89.00;63.67;;;;;5.58;100.00;99755.97;6316620;20;3658631;-55
2023/01/08 05:06:41;;;;;;;;;70.00;52.00;;;;;5.54;100.00;99764.16;6279113;20;3642057;-54
2023/01/08 05:09:10;;;;;;;;;66.33;50.67;;;;;5.54;100.00;99758.81;6313966;20;3625395;-55
2023/01/08 05:11:42;;;;;;;;;98.33;75.67;;;;;5.67;100.00;99760.06;6314024;20;3680523;-57
2023/01/08 05:14:11;;;;;;;;;78.33;54.00;;;;;5.63;100.00;99750.44;6281922;20;3658591;-56
2023/01/08 05:16:41;;;;;;;;;58.33;43.00;;;;;5.61;100.00;99745.19;6315031;20;3617032;-57
2023/01/08 05:19:10;;;;;;;;;73.00;55.00;;;;;5.54;100.00;99748.16;6312254;20;3631534;-56
2023/01/08 05:21:40;;;;;;;;;69.00;50.33;;;;;5.54;100.00;99743.69;6315036;20;3653438;-56
2023/01/08 05:24:09;;;;;;;;;83.00;58.00;;;;;5.40;100.00;99741.59;6313606;20;3634906;-56
2023/01/08 05:26:39;;;;;;;;;69.33;52.00;;;;;5.32;100.00;99741.03;6317417;20;3641983;-55
2023/01/08 05:29:10;;;;;;;;;66.33;50.00;;;;;5.35;100.00;99753.34;6316144;20;3645136;-54
2023/01/08 05:31:39;;;;;;;;;66.33;51.00;;;;;5.32;100.00;99754.34;6312207;20;3637906;-55
2023/01/08 05:34:09;;;;;;;;;68.00;49.00;;;;;5.38;100.00;99745.25;6311819;20;3651368;-55
2023/01/08 05:36:37;;;;;;;;;68.00;53.00;;;;;5.37;100.00;99744.38;6314052;20;2694065;-57
2023/01/08 05:39:07;;;;;;;;;64.33;46.67;;;;;5.42;100.00;99737.06;6312940;20;3636789;-57
2023/01/08 05:41:37;;;;;;;;;72.33;52.00;;;;;5.36;100.00;99739.97;6313673;20;3644086;-57
2023/01/08 05:44:06;;;;;;;;;77.67;56.00;;;;;5.37;100.00;99739.06;6285140;20;3641932;-56
2023/01/08 05:46:36;;;;;;;;;79.00;61.00;;;;;5.39;100.00;99734.50;6282486;20;3622214;-55
2023/01/08 05:49:06;;;;;;;;;54.33;39.00;;;;;5.28;100.00;99747.38;6313245;20;2865018;-57
2023/01/08 05:51:35;;;;;;;;;74.00;55.33;;;;;5.24;100.00;99740.47;6316588;20;3649222;-57
2023/01/08 05:54:05;;;;;;;;;104.00;85.33;;;;;5.15;100.00;99732.81;6315980;20;3691937;-55
2023/01/08 05:56:35;;;;;;;;;127.50;100.25;;;;;5.09;100.00;99735.72;6283336;20;4486668;-55
2023/01/08 05:59:05;;;;;;;;;96.75;77.25;;;;;5.18;100.00;99735.38;6282430;20;4451320;-57
2023/01/08 06:01:34;;;;;;;;;67.00;48.00;;;;;5.27;100.00;99727.03;6314353;20;3639849;-55
2023/01/08 06:04:05;;;;;;;;;139.75;116.75;;;;;5.16;100.00;99727.47;6314952;20;4489887;-57
2023/01/08 06:06:36;;;;;;;;;109.75;89.00;;;;;5.36;100.00;99723.13;6317923;20;3695225;-57
2023/01/08 06:09:06;;;;;;;;;86.33;64.67;;;;;5.30;100.00;99713.59;6280374;20;3648311;-56
2023/01/08 06:11:35;;;;;;;;;85.67;61.33;;;;;5.20;100.00;99722.88;6313949;20;3654413;-54
2023/01/08 06:14:05;;;;;;;;;78.67;57.67;;;;;5.23;100.00;99746.69;6281111;20;3647129;-54
2023/01/08 06:16:34;;;;;;;;;74.33;57.33;;;;;5.13;100.00;99726.69;6310483;20;3620059;-52
2023/01/08 06:19:04;;;;;;;;;73.00;54.33;;;;;5.20;100.00;99733.50;6315890;20;3639988;-57
2023/01/08 06:21:31;;;;;;;;;77.00;58.00;;;;;5.10;100.00;99726.81;6312787;20;2508797;-57
2023/01/08 06:24:01;;;;;;;;;82.00;58.33;;;;;5.15;100.00;99722.19;6283646;20;3657572;-56
2023/01/08 06:26:30;;;;;;;;;79.33;57.00;;;;;5.25;100.00;99718.22;6283663;20;3635751;-56
2023/01/08 06:29:00;;;;;;;;;64.67;49.67;;;;;5.21;100.00;99721.94;6315315;20;3633634;-56
2023/01/08 06:31:29;;;;;;;;;78.00;57.00;;;;;5.24;100.00;99713.84;6312151;20;3637907;-56
2023/01/08 06:33:59;;;;;;;;;58.33;41.00;;;;;5.18;100.00;99704.28;6313956;20;3625416;-54
2023/01/08 06:36:28;;;;;;;;;68.00;49.67;;;;;5.20;100.00;99706.91;6314155;20;3654907;-55
2023/01/08 06:38:58;;;;;;;;;71.00;53.00;;;;;5.15;100.00;99707.06;6312680;20;3639991;-54
2023/01/08 06:41:28;;;;;;;;;126.25;108.75;;;;;5.19;100.00;99716.69;6315324;20;3712873;-55
2023/01/08 06:43:58;;;;;;;;;77.33;60.33;;;;;5.21;100.00;99713.94;6278511;20;3617954;-55
2023/01/08 06:46:28;;;;;;;;;80.00;59.33;;;;;5.15;100.00;99719.53;6313523;20;3639945;-54
2023/01/08 06:48:57;;;;;;;;;75.00;58.33;;;;;5.19;100.00;99715.81;6311657;20;3622146;-54
2023/01/08 06:51:27;;;;;;;;;77.00;57.67;;;;;5.10;100.00;99710.84;6312491;20;3622211;-57
2023/01/08 06:53:56;;;;;;;;;93.00;75.33;;;;;5.22;100.00;99715.69;6310428;20;3684865;-56
2023/01/08 06:56:26;;;;;;;;;73.00;54.67;;;;;5.11;100.00;99717.88;6279057;20;2873404;-57
2023/01/08 06:58:55;;;;;;;;;72.50;57.00;;;;;5.05;100.00;99711.91;6310277;20;3506627;-53
2023/01/08 07:01:25;;;;;;;;;80.67;58.33;;;;;5.06;100.00;99710.97;6304516;20;3653491;-54
2023/01/08 07:03:55;;;;;;;;;80.67;60.67;;;;;5.18;100.00;99711.41;6310799;20;3647147;-55
2023/01/08 07:06:25;;;;;;;;;73.33;52.33;;;;;5.15;100.00;99714.19;6281338;20;3630493;-55
2023/01/08 07:08:54;;;;;;;;;79.00;59.33;;;;;5.04;100.00;99712.81;6315981;20;3638870;-49
2023/01/08 07:11:24;;;;;;;;;80.33;58.67;;;;;5.18;100.00;99719.41;6314841;20;3655477;-52
2023/01/08 07:13:55;;;;;;;;;80.33;60.00;;;;;5.34;100.00;99731.16;6277150;20;3649292;-57
2023/01/08 07:16:25;;;;;;;;;82.00;57.00;;;;;5.15;100.00;99725.69;6282026;20;3628484;-57
2023/01/08 07:18:55;;;;;;;;;117.75;105.50;;;;;5.30;100.00;99724.25;6314891;20;4460803;-57
2023/01/08 07:21:25;;;;;;;;;74.00;59.33;;;;;5.32;100.00;99732.16;6313001;20;2872267;-56
2023/01/08 07:23:55;;;;;;;;;90.67;66.33;;;;;5.04;100.00;99733.25;6313214;20;3663844;-56
2023/01/08 07:26:23;;;;;;;;;73.00;59.00;;;;;5.22;100.00;99732.53;6281352;20;2859151;-56
2023/01/08 07:28:53;;;;;;;;;85.33;63.67;;;;;5.08;100.00;99737.50;6282292;20;3660688;-56
2023/01/08 07:31:23;;;;;;;;;83.67;61.00;;;;;5.13;100.00;99734.66;6281776;20;3646160;-56
2023/01/08 07:33:52;;;;;;;;;74.67;55.00;;;;;5.05;100.00;99725.22;6312561;20;3621150;-55
2023/01/08 07:36:23;;;;;;;;;79.67;60.67;;;;;4.92;100.00;99733.69;6310892;20;3645099;-57
2023/01/08 07:38:52;;;;;;;;;89.00;62.33;;;;;5.07;100.00;99733.13;6314481;20;3671124;-56
2023/01/08 07:41:22;;;;;;;;;81.33;62.00;;;;;5.00;100.00;99736.94;6311442;20;3646160;-57
2023/01/08 07:43:51;;;;;;;;;91.33;64.00;;;;;5.15;100.00;99730.16;6310990;20;3671103;-54
2023/01/08 07:46:21;;;;;;;;;79.33;61.00;;;;;5.06;100.00;99726.94;6281801;20;2888984;-54
2023/01/08 07:48:51;;;;;;;;;86.67;65.67;;;;;5.03;100.00;99727.06;6313863;20;3656629;-57
2023/01/08 07:51:21;;;;;;;;;91.33;75.33;;;;;4.97;100.00;99716.63;6279786;20;3672176;-55
2023/01/08 07:53:50;;;;;;;;;84.67;62.67;;;;;5.07;100.00;99733.97;6281554;20;3649239;-54
2023/01/08 07:56:20;;;;;;;;;87.00;67.00;;;;;5.02;100.00;99733.28;6313567;20;3665965;-57
2023/01/08 07:58:50;;;;;;;;;91.67;72.67;;;;;5.02;100.00;99714.66;6281171;20;3691949;-55
2023/01/08 08:01:20;;;;;;;;;89.00;70.67;;;;;5.20;100.00;99714.88;6278866;20;3666353;-55
2023/01/08 08:03:48;;;;;;;;;77.00;58.00;;;;;5.05;100.00;99708.34;6283867;20;3624203;-54
2023/01/08 08:06:19;;;;;;;;;117.75;93.00;;;;;5.01;100.00;99707.63;6282429;20;3707720;-54
2023/01/08 08:08:49;;;;;;;;;103.50;88.25;;;;;4.92;100.00;99707.09;6310211;20;3695064;-55
2023/01/08 08:11:19;;;;;;;;;201.50;168.00;;;;;5.06;100.00;99716.28;6278427;20;4475332;-51
2023/01/08 08:13:50;;;;;;;;;114.00;91.00;;;;;4.91;100.00;99716.00;6282347;20;4457523;-54
2023/01/08 08:16:19;;;;;;;;;166.00;146.00;;;;;5.06;100.00;99720.75;6272714;20;1962762;-52
2023/01/08 08:18:50;;;;;;;;;146.50;125.50;;;;;4.90;100.00;99712.50;6279598;20;4486830;-54
2023/01/08 08:21:20;;;;;;;;;112.50;80.25;;;;;5.05;100.00;99711.91;6282910;20;4437785;-55
2023/01/08 08:23:49;;;;;;;;;104.00;82.00;;;;;5.11;100.00;99715.22;6313131;20;3690223;-53
2023/01/08 08:26:19;;;;;;;;;92.67;72.00;;;;;5.22;100.00;99700.59;6281075;20;3667991;-55
2023/01/08 08:28:49;;;;;;;;;104.25;89.00;;;;;5.28;100.00;99695.00;6283531;20;4450237;-55
2023/01/08 08:31:18;;;;;;;;;102.00;90.67;;;;;5.27;100.00;99692.44;6315130;20;3685664;-56
2023/01/08 08:33:48;;;;;;;;;104.00;82.67;;;;;5.24;100.00;99692.56;6281273;20;3675324;-55
2023/01/08 08:36:17;;;;;;;;;92.33;73.33;;;;;5.18;100.00;99692.78;6281174;20;3668446;-54
2023/01/08 08:38:47;;;;;;;;;95.00;83.00;;;;;5.06;100.00;99689.69;6282945;20;3651330;-56
2023/01/08 08:41:17;;;;;;;;;84.67;64.00;;;;;5.24;100.00;99687.22;6311052;20;3650305;-57
2023/01/08 08:43:50;;;;;;;;;84.67;61.00;;;;;5.19;100.00;99689.22;6312095;20;3662801;-56
2023/01/08 08:46:19;;;;;;;;;83.33;63.00;;;;;5.20;100.00;99680.28;6280501;20;3655462;-55
2023/01/08 08:48:49;;;;;;;;;85.67;63.33;;;;;5.43;100.00;99684.69;6279640;20;3666932;-56
2023/01/08 08:51:18;;;;;;;;;84.00;61.00;;;;;5.46;100.00;99681.91;6280233;20;3647183;-55
2023/01/08 08:53:48;;;;;;;;;82.67;61.67;;;;;5.36;100.00;99676.06;6312589;20;3646548;-54
2023/01/08 08:56:18;;;;;;;;;86.33;62.33;;;;;5.38;100.00;99679.53;6278731;20;3651295;-56
2023/01/08 08:58:49;;;;;;;;;86.00;62.67;;;;;5.35;100.00;99679.69;6305274;20;3659630;-57
2023/01/08 09:01:18;;;;;;;;;80.67;60.67;;;;;5.50;100.00;99679.06;6274976;20;3639854;-54
2023/01/08 09:03:51;;;;;;;;;100.33;78.33;;;;;5.48;100.00;99677.38;6311696;20;3683575;-55
2023/01/08 09:06:22;;;;;;;;;113.00;88.00;;;;;5.37;100.00;99672.50;6276966;20;3700400;-57
2023/01/08 09:08:53;;;;;;;;;87.67;63.67;;;;;5.27;100.00;99666.66;6274553;20;3648228;-53
2023/01/08 09:11:23;;;;;;;;;85.33;61.00;;;;;5.37;100.00;99669.84;6279819;20;3655599;-52
2023/01/08 09:13:53;;;;;;;;;85.67;67.00;;;;;5.57;100.00;99673.47;6311400;20;3655514;-55
2023/01/08 09:16:22;;;;;;;;;83.00;63.00;;;;;5.40;100.00;99667.06;6276919;20;3644115;-57
2023/01/08 09:18:52;;;;;;;;;80.67;60.00;;;;;5.47;100.00;99660.53;6312092;20;3650307;-55
2023/01/08 09:21:21;;;;;;;;;64.67;46.00;;;;;5.41;100.00;99666.09;6309889;20;2897282;-57
2023/01/08 09:23:51;;;;;;;;;85.33;63.00;;;;;5.48;100.00;99662.28;6315356;20;3640918;-58
2023/01/08 09:26:20;;;;;;;;;89.00;67.67;;;;;5.46;100.00;99666.78;6317617;20;3666944;-56
2023/01/08 09:28:50;;;;;;;;;85.67;65.33;;;;;5.33;100.00;99664.69;6314229;20;3659624;-54
2023/01/08 09:31:20;;;;;;;;;97.33;79.67;;;;;5.38;100.00;99662.72;6285614;20;3675255;-55
2023/01/08 09:33:50;;;;;;;;;90.00;69.33;;;;;5.45;100.00;99665.06;6283529;20;3674243;-57
2023/01/08 09:36:20;;;;;;;;;88.67;72.33;;;;;5.38;100.00;99652.91;6281779;20;3655471;-59
2023/01/08 09:38:49;;;;;;;;;81.00;62.67;;;;;5.44;100.00;99657.97;6280399;20;3629430;-57
2023/01/08 09:41:31;;;;;;;;;83.67;61.00;;;;;5.82;100.00;99651.97;6312950;20;3650255;-56
2023/01/08 09:44:04;;;;;;;;;80.33;61.00;;;;;5.79;100.00;99650.31;6312598;20;3629745;-54
2023/01/08 09:46:35;;;;;;;;;86.00;67.33;;;;;5.75;100.00;99646.06;6314439;20;3657631;-55
2023/01/08 09:49:14;;;;;;;;;83.00;61.00;;;;;5.89;100.00;99638.34;6278033;20;3656577;-55
2023/01/08 09:51:43;;;;;;;;;67.50;53.00;;;;;5.84;100.00;99636.81;6279476;20;2881592;-54
2023/01/08 09:54:16;;;;;;;;;87.33;65.67;;;;;5.78;100.00;99635.28;6280361;20;3675285;-56
2023/01/08 09:56:46;;;;;;;;;82.00;61.33;;;;;5.85;100.00;99625.22;6280057;20;3640902;-55
2023/01/08 09:59:19;;;;;;;;;79.67;61.00;;;;;6.17;100.00;99625.66;6313484;20;3629418;-54
2023/01/08 10:01:48;;;;;;;;;86.00;63.33;;;;;6.01;100.00;99615.66;6315480;20;3632580;-55
2023/01/08 10:04:36;;;;;;;;;59.33;44.00;;;;;6.28;100.00;99612.69;6280002;20;3624199;-56
2023/01/08 10:07:20;;;;;;;;;76.00;60.00;;;;;6.29;100.00;99609.97;6312459;20;3596091;-57
2023/01/08 10:09:52;;;;;;;;;86.00;60.00;;;;;6.32;100.00;99599.16;6308046;20;3654432;-56
2023/01/08 10:12:31;;;;;;;;;83.67;63.00;;;;;6.53;100.00;99599.09;6312371;20;3640893;-54
2023/01/08 10:15:06;;;;;;;;;81.67;62.67;;;;;6.79;100.00;99597.88;6311349;20;3630579;-55
2023/01/08 10:18:01;;;;;;;;;84.33;61.00;;;;;6.99;100.00;99596.94;6314347;20;3643016;-55
2023/01/08 10:20:32;;;;;;;;;78.00;58.33;;;;;6.81;100.00;99590.66;6312228;20;3643423;-55
2023/01/08 10:23:17;;;;;;;;;83.67;61.00;;;;;6.92;100.00;99587.47;6278205;20;3654476;-54
2023/01/08 10:26:00;;;;;;;;;78.67;60.00;;;;;7.06;100.00;99577.00;6313836;20;3635715;-57
2023/01/08 10:28:36;;;;;;;;;92.33;67.00;;;;;7.12;100.00;99579.38;6313608;20;3664844;-55
2023/01/08 10:31:14;;;;;;;;;83.67;64.00;;;;;7.03;100.00;99575.34;6287433;20;3630479;-54
2023/01/08 10:33:48;;;;;;;;;81.00;60.67;;;;;7.35;100.00;99572.03;6313919;20;3652383;-56
2023/01/08 10:36:26;;;;;;;;;69.00;53.00;;;;;7.22;100.00;99569.13;6279679;20;3633606;-57
2023/01/08 10:39:03;;;;;;;;;78.00;54.33;;;;;7.60;100.00;99559.16;6313049;20;3661694;-57
2023/01/08 10:41:38;;;;;;;;;80.00;61.00;;;;;7.59;100.00;99557.44;6277702;20;3639923;-55
2023/01/08 10:44:16;;;;;;;;;71.00;52.33;;;;;7.54;100.00;99558.63;6313796;20;3626475;-55
2023/01/08 10:46:54;;;;;;;;;77.00;60.33;;;;;7.64;100.00;99547.38;6316496;20;2874349;-58
2023/01/08 10:49:48;;;;;;;;;84.67;63.67;;;;;8.00;100.00;99541.00;6312243;20;3634788;-53
2023/01/08 10:52:36;;;;;;;;;74.33;54.33;;;;;7.67;100.00;99538.31;6314750;20;3629445;-56
2023/01/08 10:55:36;;;;;;;;;73.33;55.33;;;;;7.79;100.00;99526.97;6315896;20;3641069;-56
2023/01/08 10:58:08;;;;;;;;;82.33;61.33;;;;;8.09;100.00;99527.16;6311859;20;3644069;-56
2023/01/08 11:00:38;;;;;;;;;74.67;59.67;;;;;8.09;100.00;99524.50;6310904;20;3621471;-54
2023/01/08 11:03:30;;;;;;;;;65.67;45.00;;;;;7.74;100.00;99520.16;6308199;20;3632695;-59
2023/01/08 11:06:19;;;;;;;;;81.33;61.33;;;;;7.88;100.00;99513.13;6311307;20;3635828;-57
2023/01/08 11:08:59;;;;;;;;;84.00;66.33;;;;;7.88;100.00;99512.28;6310552;20;3650326;-58
2023/01/08 11:11:36;;;;;;;;;81.00;61.00;;;;;8.39;100.00;99510.41;6312297;20;3618097;-58
2023/01/08 11:14:25;;;;;;;;;82.00;64.00;;;;;8.45;100.00;99509.22;6311064;20;3637870;-58
2023/01/08 11:16:56;;;;;;;;;82.00;63.67;;;;;8.74;100.00;99499.53;6313361;20;3628431;-58
2023/01/08 11:19:32;;;;;;;;;90.75;68.25;;;;;8.74;100.00;99499.53;6312395;20;4431574;-58
2023/01/08 11:22:21;;;;;;;;;83.33;67.00;;;;;9.06;100.00;99483.41;6307212;20;3647180;-58
2023/01/08 11:24:52;;;;;;;;;85.67;67.33;;;;;9.54;99.52;99476.13;6277418;20;3674624;-59
2023/01/08 11:27:35;;;;;;;;;77.67;57.67;;;;;9.59;98.00;99477.56;6279827;20;3643096;-59